Time;durP1;ratioP1;P1;durP2;ratioP2;P2;SDS_P1;SDS_P2;PMS_P1;PMS_P2;Temp;Humidity;BMP_temperature;BMP_pressure;BME280_temperature;BME280_humidity;BME280_pressure;Samples;Min_cycle;Max_cycle;Signal;HPM_P1;HPM_P2
2021/05/15 00:01:19;;;;;;;1.13;0.65;;;;;;;10.79;70.82;95698.38;5011264;28;20077;-71
2021/05/15 00:03:45;;;;;;;1.83;0.80;;;;;;;10.72;71.25;95698.94;5009321;28;20053;-71
2021/05/15 00:06:11;;;;;;;4.25;0.90;;;;;;;10.67;71.50;95693.69;5009928;28;20046;-72
2021/05/15 00:08:37;;;;;;;2.75;1.00;;;;;;;10.66;71.46;95697.56;5005590;28;20053;-71
2021/05/15 00:11:06;;;;;;;2.38;0.80;;;;;;;10.63;71.81;95699.00;5009815;28;20065;-71
2021/05/15 00:13:32;;;;;;;2.58;0.90;;;;;;;10.64;71.80;95691.63;5011289;28;20056;-71
2021/05/15 00:15:59;;;;;;;0.75;0.63;;;;;;;10.63;71.65;95699.00;5010566;28;20041;-71
2021/05/15 00:18:25;;;;;;;3.38;0.95;;;;;;;10.61;71.68;95698.56;5010728;28;20042;-72
2021/05/15 00:20:51;;;;;;;2.22;1.00;;;;;;;10.69;72.04;95697.66;5010907;28;20120;-72
2021/05/15 00:23:17;;;;;;;4.75;1.13;;;;;;;10.71;71.33;95697.34;5010492;28;20408;-72
2021/05/15 00:25:43;;;;;;;2.03;1.00;;;;;;;10.75;71.43;95700.19;5011117;28;20050;-71
2021/05/15 00:28:09;;;;;;;2.15;1.23;;;;;;;10.74;71.22;95701.31;5008725;28;20120;-71
2021/05/15 00:30:36;;;;;;;2.47;1.10;;;;;;;10.78;71.59;95694.06;5011192;28;20485;-72
2021/05/15 00:33:02;;;;;;;2.15;1.30;;;;;;;10.80;70.94;95702.69;5009859;28;20500;-72
2021/05/15 00:35:28;;;;;;;1.35;1.00;;;;;;;10.84;71.60;95703.63;5011416;28;20053;-72
2021/05/15 00:37:54;;;;;;;3.33;1.20;;;;;;;10.86;71.94;95706.81;5010343;28;20129;-72
2021/05/15 00:40:20;;;;;;;3.45;1.20;;;;;;;10.69;71.13;95708.53;5009920;28;20674;-72
2021/05/15 00:42:47;;;;;;;1.15;1.00;;;;;;;10.60;71.69;95705.13;5010589;28;20046;-72
2021/05/15 00:45:15;;;;;;;2.75;1.05;;;;;;;10.56;72.51;95708.84;5010219;28;20053;-72
2021/05/15 00:47:42;;;;;;;2.10;1.30;;;;;;;10.45;73.23;95709.25;5009524;28;20069;-72
2021/05/15 00:50:10;;;;;;;4.53;1.08;;;;;;;10.40;73.30;95705.94;5010024;28;20045;-72
2021/05/15 00:52:36;;;;;;;2.30;1.10;;;;;;;10.34;74.01;95702.63;5011165;28;20041;-72
2021/05/15 00:55:08;;;;;;;2.33;1.00;;;;;;;10.28;74.16;95703.13;5009645;28;20050;-71
2021/05/15 00:57:36;;;;;;;1.63;0.98;;;;;;;10.24;74.02;95710.38;5011056;28;20053;-71
2021/05/15 01:00:02;;;;;;;1.27;1.00;;;;;;;10.22;74.37;95699.78;5013583;28;20409;-71
2021/05/15 01:02:28;;;;;;;2.75;1.27;;;;;;;10.18;75.25;95707.81;5014929;28;20049;-71
2021/05/15 01:04:55;;;;;;;2.50;1.10;;;;;;;10.04;75.41;95710.00;5013097;28;20042;-71
2021/05/15 01:07:21;;;;;;;2.28;1.10;;;;;;;10.00;76.26;95703.63;5014171;28;20378;-73
2021/05/15 01:09:47;;;;;;;2.97;1.20;;;;;;;9.97;76.59;95704.28;5013900;28;20416;-71
2021/05/15 01:12:13;;;;;;;4.00;1.33;;;;;;;9.96;77.02;95707.31;5013655;28;20050;-72
2021/05/15 01:14:39;;;;;;;1.98;1.30;;;;;;;10.01;77.01;95701.69;5014756;28;20104;-71
2021/05/15 01:17:09;;;;;;;2.92;1.30;;;;;;;10.04;76.46;95699.13;5013517;28;20051;-71
2021/05/15 01:19:35;;;;;;;2.45;1.23;;;;;;;10.06;76.82;95713.16;5015031;28;20049;-71
2021/05/15 01:22:05;;;;;;;4.40;1.40;;;;;;;10.07;76.58;95703.88;5013391;28;20077;-71
2021/05/15 01:24:32;;;;;;;3.17;1.33;;;;;;;10.10;76.45;95705.94;5014716;28;20520;-71
2021/05/15 01:26:59;;;;;;;3.08;1.20;;;;;;;10.08;76.38;95708.22;5012661;28;20038;-72
2021/05/15 01:29:26;;;;;;;2.95;1.35;;;;;;;10.07;75.85;95708.53;5013666;28;20042;-71
2021/05/15 01:31:51;;;;;;;3.20;1.60;;;;;;;10.13;76.45;95701.78;5013864;28;20489;-71
2021/05/15 01:34:17;;;;;;;5.57;1.30;;;;;;;10.09;75.93;95703.56;5013452;28;20074;-71
2021/05/15 01:36:44;;;;;;;5.95;1.33;;;;;;;10.12;76.14;95706.41;5014455;28;20514;-71
2021/05/15 01:39:14;;;;;;;5.30;1.40;;;;;;;10.12;76.05;95711.84;5012533;28;20617;-71
2021/05/15 01:41:40;;;;;;;4.45;1.30;;;;;;;10.06;76.29;95707.72;5013103;28;20335;-71
2021/05/15 01:44:06;;;;;;;3.53;1.30;;;;;;;10.03;76.48;95702.19;5012919;28;20511;-71
2021/05/15 01:46:32;;;;;;;2.97;1.58;;;;;;;10.09;76.80;95706.28;5014451;28;20050;-72
2021/05/15 01:48:58;;;;;;;3.33;1.48;;;;;;;10.07;76.41;95703.88;5013300;28;20052;-71
2021/05/15 01:51:24;;;;;;;2.53;1.70;;;;;;;10.13;76.74;95704.50;5013497;28;20046;-72
2021/05/15 01:53:52;;;;;;;2.15;1.30;;;;;;;10.18;76.41;95705.09;5012277;28;20516;-72
2021/05/15 01:56:21;;;;;;;3.33;1.50;;;;;;;10.12;76.58;95700.16;5013205;28;20156;-71
2021/05/15 01:58:47;;;;;;;2.55;1.50;;;;;;;10.05;76.83;95695.25;5013638;28;20042;-71
2021/05/15 02:01:13;;;;;;;7.43;1.80;;;;;;;10.07;77.26;95695.72;5012812;28;20050;-71
2021/05/15 02:03:42;;;;;;;4.40;2.25;;;;;;;10.01;77.33;95694.31;5013797;28;20509;-72
2021/05/15 02:06:08;;;;;;;2.47;1.58;;;;;;;9.96;77.16;95691.00;5012520;28;20038;-72
2021/05/15 02:08:35;;;;;;;2.65;1.27;;;;;;;9.92;77.18;95696.31;5013902;28;20046;-71
2021/05/15 02:11:01;;;;;;;2.28;1.50;;;;;;;9.89;77.77;95697.75;5012091;28;20049;-72
2021/05/15 02:13:29;;;;;;;1.95;1.48;;;;;;;9.86;77.65;95689.47;5013496;28;20468;-71
2021/05/15 02:15:56;;;;;;;2.10;1.30;;;;;;;9.85;77.37;95696.81;5013086;28;20446;-72
2021/05/15 02:18:23;;;;;;;1.77;1.20;;;;;;;9.82;77.25;95692.06;5012869;28;20046;-72
2021/05/15 02:20:50;;;;;;;3.97;1.20;;;;;;;9.74;77.20;95700.25;5013175;28;20497;-72
2021/05/15 02:23:18;;;;;;;1.77;1.08;;;;;;;9.70;77.50;95699.31;5012438;28;20053;-72
2021/05/15 02:25:46;;;;;;;2.75;1.17;;;;;;;9.66;77.56;95699.97;5013441;28;20120;-72
2021/05/15 02:28:13;;;;;;;1.65;1.15;;;;;;;9.65;77.58;95698.38;5011938;28;20436;-72
2021/05/15 02:30:40;;;;;;;3.33;1.20;;;;;;;9.64;77.35;95690.53;5013643;28;20050;-72
2021/05/15 02:33:06;;;;;;;2.17;1.20;;;;;;;9.58;78.27;95698.09;5012193;28;20584;-72
2021/05/15 02:35:32;;;;;;;1.45;1.10;;;;;;;9.56;78.13;95700.34;5013461;28;20390;-72
2021/05/15 02:37:58;;;;;;;2.78;1.08;;;;;;;9.55;78.55;95695.22;5012531;28;20048;-72
2021/05/15 02:40:24;;;;;;;1.35;1.23;;;;;;;9.52;78.76;95701.31;5012055;28;20053;-72
2021/05/15 02:42:51;;;;;;;3.58;1.10;;;;;;;9.52;79.25;95696.69;5012546;28;20050;-72
2021/05/15 02:45:19;;;;;;;3.38;1.25;;;;;;;9.47;79.33;95705.03;5012212;28;20045;-72
2021/05/15 02:47:46;;;;;;;2.05;1.42;;;;;;;9.50;79.91;95698.94;5012875;28;20049;-72
2021/05/15 02:50:13;;;;;;;2.25;1.20;;;;;;;9.49;79.93;95700.03;5011940;28;20050;-76
2021/05/15 02:52:40;;;;;;;3.00;1.10;;;;;;;9.43;80.08;95704.06;5012953;28;20042;-72
2021/05/15 02:55:08;;;;;;;3.65;1.20;;;;;;;9.37;80.44;95700.75;5011925;28;20053;-72
2021/05/15 02:57:34;;;;;;;1.85;1.30;;;;;;;9.28;80.33;95702.69;5012991;28;20041;-72
2021/05/15 03:00:01;;;;;;;2.95;1.00;;;;;;;9.30;80.93;95713.25;5012016;28;20054;-72
2021/05/15 03:02:27;;;;;;;1.55;1.00;;;;;;;9.27;81.25;95703.03;5012363;28;20038;-72
2021/05/15 03:04:53;;;;;;;2.83;1.02;;;;;;;9.21;81.10;95704.31;5012109;28;20046;-72
2021/05/15 03:07:19;;;;;;;1.80;1.10;;;;;;;9.21;82.15;95707.84;5011772;28;20618;-72
2021/05/15 03:09:46;;;;;;;3.45;1.00;;;;;;;9.21;82.10;95713.28;5011640;28;20061;-73
2021/05/15 03:12:12;;;;;;;2.90;1.35;;;;;;;9.10;81.66;95718.25;5011512;28;20050;-72
2021/05/15 03:14:39;;;;;;;2.80;1.40;;;;;;;9.06;81.92;95716.50;5012381;28;20045;-72
2021/05/15 03:17:05;;;;;;;1.73;1.10;;;;;;;9.07;82.42;95718.88;5011321;28;20042;-72
2021/05/15 03:19:31;;;;;;;1.85;0.90;;;;;;;9.07;82.82;95716.16;5012759;28;20048;-72
2021/05/15 03:21:58;;;;;;;1.77;1.27;;;;;;;9.07;82.76;95716.16;5011952;28;20627;-72
2021/05/15 03:24:24;;;;;;;1.38;1.00;;;;;;;9.07;82.95;95716.16;5012086;28;20500;-72
2021/05/15 03:26:50;;;;;;;3.47;1.25;;;;;;;9.12;83.14;95718.72;5011708;28;20052;-72
2021/05/15 03:29:16;;;;;;;4.28;1.33;;;;;;;9.13;82.93;95720.34;5011666;28;20048;-72
2021/05/15 03:31:42;;;;;;;1.95;1.10;;;;;;;9.20;83.00;95713.59;5011498;28;20062;-72
2021/05/15 03:34:08;;;;;;;2.15;1.05;;;;;;;9.18;82.81;95710.41;5011284;28;20057;-72
2021/05/15 03:36:34;;;;;;;2.60;1.20;;;;;;;9.22;82.99;95714.06;5011859;28;20076;-72
2021/05/15 03:39:01;;;;;;;2.40;1.13;;;;;;;9.26;82.96;95717.72;5011056;28;20068;-72
2021/05/15 03:41:27;;;;;;;2.33;1.00;;;;;;;9.15;82.98;95723.50;5012054;28;20038;-72
2021/05/15 03:43:53;;;;;;;1.48;1.15;;;;;;;9.13;83.19;95717.63;5011187;28;20048;-72
2021/05/15 03:46:19;;;;;;;4.45;1.20;;;;;;;9.12;83.44;95713.28;5011602;28;20049;-72
2021/05/15 03:48:45;;;;;;;2.63;1.30;;;;;;;9.12;83.57;95715.19;5010881;28;20093;-72
2021/05/15 03:51:11;;;;;;;2.30;1.15;;;;;;;9.21;84.27;95715.19;5011554;28;20046;-72
2021/05/15 03:53:37;;;;;;;4.13;1.20;;;;;;;9.24;83.92;95717.25;5011326;28;20070;-72
2021/05/15 03:56:05;;;;;;;2.58;1.10;;;;;;;9.21;83.27;95715.19;5011136;28;20065;-72
2021/05/15 03:58:31;;;;;;;2.13;1.45;;;;;;;9.17;83.72;95714.25;5011345;28;20045;-72
2021/05/15 04:00:57;;;;;;;1.88;1.02;;;;;;;9.13;83.67;95714.06;5011130;28;20096;-72
2021/05/15 04:03:23;;;;;;;3.38;1.20;;;;;;;9.07;83.72;95721.59;5011056;28;20447;-72
2021/05/15 04:05:49;;;;;;;5.30;1.40;;;;;;;9.07;84.03;95723.53;5011028;28;20038;-72
2021/05/15 04:08:16;;;;;;;3.47;1.27;;;;;;;9.05;84.56;95723.84;5010957;28;20046;-73
2021/05/15 04:10:42;;;;;;;1.70;1.10;;;;;;;9.02;84.43;95735.34;5009899;28;20069;-73
2021/05/15 04:13:18;;;;;;;1.90;1.23;;;;;;;8.98;84.78;95734.44;5011283;28;20595;-73
2021/05/15 04:15:49;;;;;;;2.13;1.17;;;;;;;8.98;84.80;95731.72;5010714;28;20050;-73
2021/05/15 04:18:16;;;;;;;3.40;1.50;;;;;;;9.08;85.06;95731.38;5010772;28;20081;-73
2021/05/15 04:20:44;;;;;;;3.05;1.92;;;;;;;9.17;85.07;95733.25;5011068;28;20042;-73
2021/05/15 04:23:12;;;;;;;2.20;1.52;;;;;;;9.22;85.37;95738.50;5010647;28;20050;-72
2021/05/15 04:25:38;;;;;;;2.13;1.10;;;;;;;9.25;84.67;95737.88;5011191;28;20042;-72
2021/05/15 04:28:05;;;;;;;3.40;1.30;;;;;;;9.23;84.75;95731.94;5010029;28;20413;-72
2021/05/15 04:30:33;;;;;;;4.32;1.45;;;;;;;9.31;84.73;95731.13;5011359;28;20645;-73
2021/05/15 04:33:00;;;;;;;1.70;1.23;;;;;;;9.41;85.20;95733.50;5009580;28;20068;-73
2021/05/15 04:35:27;;;;;;;2.15;1.38;;;;;;;9.51;85.23;95735.88;5011445;28;20137;-72
2021/05/15 04:37:53;;;;;;;2.33;1.20;;;;;;;9.51;85.01;95741.31;5010776;28;20050;-72
2021/05/15 04:40:19;;;;;;;2.80;1.50;;;;;;;9.58;85.08;95733.44;5011028;28;20042;-72
2021/05/15 04:42:46;;;;;;;2.22;1.50;;;;;;;9.63;85.30;95732.44;5010641;28;20042;-73
2021/05/15 04:45:14;;;;;;;3.38;1.60;;;;;;;9.68;85.42;95730.34;5010555;28;20408;-73
2021/05/15 04:47:41;;;;;;;2.25;1.27;;;;;;;9.70;84.86;95734.66;5010585;28;20497;-73
2021/05/15 04:50:09;;;;;;;2.20;1.27;;;;;;;9.68;84.49;95746.66;5010081;28;20416;-73
2021/05/15 04:52:35;;;;;;;2.85;1.50;;;;;;;9.72;84.65;95737.84;5011314;28;20042;-72
2021/05/15 04:55:01;;;;;;;2.55;1.23;;;;;;;9.77;84.52;95745.84;5010096;28;20054;-73
2021/05/15 04:57:27;;;;;;;2.22;1.85;;;;;;;9.71;84.35;95741.69;5011332;28;20049;-72
2021/05/15 04:59:53;;;;;;;2.00;1.15;;;;;;;9.71;84.28;95750.66;5010294;28;20042;-73
2021/05/15 05:02:19;;;;;;;4.63;1.30;;;;;;;9.67;83.70;95750.50;5010733;28;20129;-72
2021/05/15 05:04:46;;;;;;;3.85;1.58;;;;;;;9.66;84.21;95748.91;5010246;28;20041;-73
2021/05/15 05:07:12;;;;;;;2.05;1.27;;;;;;;9.63;83.68;95744.13;5010461;28;20124;-72
2021/05/15 05:09:38;;;;;;;2.13;1.20;;;;;;;9.66;83.79;95748.91;5010593;28;20050;-73
2021/05/15 05:12:05;;;;;;;3.60;1.38;;;;;;;9.67;84.27;95750.50;5010020;28;20053;-73
2021/05/15 05:14:30;;;;;;;3.90;1.33;;;;;;;9.66;84.02;95748.91;5010664;28;20409;-73
2021/05/15 05:16:56;;;;;;;1.35;1.10;;;;;;;9.67;83.41;95745.06;5010498;28;20045;-73
2021/05/15 05:19:23;;;;;;;1.52;1.20;;;;;;;9.65;83.79;95750.00;5010463;28;20493;-73
2021/05/15 05:21:50;;;;;;;3.30;1.20;;;;;;;9.61;82.78;95745.59;5009938;28;20046;-73
2021/05/15 05:24:16;;;;;;;3.78;1.33;;;;;;;9.60;82.76;95744.75;5010552;28;20050;-73
2021/05/15 05:26:43;;;;;;;1.73;1.00;;;;;;;9.56;83.07;95754.72;5010210;28;20041;-73
2021/05/15 05:29:09;;;;;;;1.55;1.05;;;;;;;9.55;83.49;95753.13;5010222;28;20046;-73
2021/05/15 05:31:35;;;;;;;1.55;1.20;;;;;;;9.60;83.51;95750.19;5010088;28;20119;-73
2021/05/15 05:34:02;;;;;;;1.23;0.93;;;;;;;9.57;83.26;95750.06;5010041;28;20057;-73
2021/05/15 05:36:28;;;;;;;1.73;1.00;;;;;;;9.55;83.56;95736.81;5010372;28;20050;-73
2021/05/15 05:38:55;;;;;;;3.05;0.80;;;;;;;9.51;83.72;95741.31;5010019;28;20541;-73
2021/05/15 05:41:24;;;;;;;1.00;0.90;;;;;;;9.55;84.67;95742.25;5010347;28;20477;-73
2021/05/15 05:43:50;;;;;;;2.58;1.27;;;;;;;9.62;84.48;95747.97;5009994;28;20049;-73
2021/05/15 05:46:16;;;;;;;2.10;1.30;;;;;;;9.74;84.61;95743.75;5013709;28;20523;-72
2021/05/15 05:48:42;;;;;;;1.27;1.05;;;;;;;9.77;84.83;95737.66;5013266;28;20038;-72
2021/05/15 05:51:08;;;;;;;2.67;1.10;;;;;;;9.75;83.90;95739.91;5013701;28;20049;-73
2021/05/15 05:53:33;;;;;;;2.75;1.15;;;;;;;9.79;83.96;95735.41;5013213;28;20045;-73
2021/05/15 05:56:00;;;;;;;3.60;1.13;;;;;;;9.84;84.00;95737.94;5014010;28;20042;-73
2021/05/15 05:58:26;;;;;;;1.20;0.90;;;;;;;9.82;83.39;95732.06;5012984;28;20046;-73
2021/05/15 06:00:52;;;;;;;1.52;0.82;;;;;;;9.84;82.94;95733.31;5013589;28;20045;-73
2021/05/15 06:03:18;;;;;;;1.55;1.08;;;;;;;9.89;83.07;95729.59;5013210;28;20049;-73
2021/05/15 06:05:44;;;;;;;2.90;1.13;;;;;;;9.92;83.36;95734.41;5013254;28;20489;-73
2021/05/15 06:08:11;;;;;;;2.33;1.33;;;;;;;9.95;83.38;95728.28;5013496;28;20461;-73
2021/05/15 06:10:38;;;;;;;3.17;1.05;;;;;;;9.89;82.20;95726.88;5012672;28;20049;-73
2021/05/15 06:13:06;;;;;;;2.17;1.02;;;;;;;9.98;83.07;95733.06;5013477;28;20487;-73
2021/05/15 06:15:32;;;;;;;2.45;1.40;;;;;;;10.08;83.98;95734.63;5012965;28;20069;-73
2021/05/15 06:17:58;;;;;;;2.15;1.10;;;;;;;10.10;83.54;95735.88;5014150;28;20045;-73
2021/05/15 06:20:25;;;;;;;2.47;1.20;;;;;;;10.05;82.57;95732.56;5012638;28;20041;-73
2021/05/15 06:22:51;;;;;;;1.65;0.90;;;;;;;10.15;81.81;95732.97;5013273;28;20049;-73
2021/05/15 06:25:17;;;;;;;1.83;1.05;;;;;;;10.30;80.66;95728.09;5012912;28;20133;-73
2021/05/15 06:27:44;;;;;;;1.75;0.90;;;;;;;10.45;80.35;95730.22;5012961;28;20530;-73
2021/05/15 06:30:11;;;;;;;1.05;0.95;;;;;;;10.60;80.42;95726.91;5012743;28;20050;-73
2021/05/15 06:32:37;;;;;;;2.50;1.08;;;;;;;10.75;79.53;95727.41;5012590;28;20046;-73
2021/05/15 06:35:04;;;;;;;2.38;0.93;;;;;;;10.86;78.56;95728.63;5012936;28;20056;-72
2021/05/15 06:37:30;;;;;;;1.85;0.85;;;;;;;10.93;78.22;95728.84;5012375;28;20046;-73
2021/05/15 06:39:56;;;;;;;2.92;1.00;;;;;;;10.94;77.46;95725.78;5013450;28;20046;-73
2021/05/15 06:42:22;;;;;;;1.27;0.80;;;;;;;10.96;76.70;95733.63;5011981;28;20050;-73
2021/05/15 06:44:49;;;;;;;1.65;0.90;;;;;;;10.93;76.75;95726.13;5013179;28;20074;-73
2021/05/15 06:47:17;;;;;;;3.28;0.88;;;;;;;10.93;76.52;95731.56;5012158;28;20133;-73
2021/05/15 06:49:43;;;;;;;2.78;0.90;;;;;;;10.91;76.09;95725.66;5012656;28;20046;-72
2021/05/15 06:52:09;;;;;;;3.42;1.00;;;;;;;10.98;76.15;95723.19;5012143;28;20046;-72
2021/05/15 06:54:35;;;;;;;2.10;1.15;;;;;;;11.00;76.69;95723.66;5012682;28;20084;-73
2021/05/15 06:57:01;;;;;;;2.58;0.88;;;;;;;11.05;76.85;95731.59;5011695;28;20046;-73
2021/05/15 06:59:27;;;;;;;1.17;0.90;;;;;;;11.11;77.45;95724.81;5012099;28;20563;-72
2021/05/15 07:01:53;;;;;;;2.35;1.05;;;;;;;11.19;77.63;95723.94;5012934;28;20045;-73
2021/05/15 07:04:20;;;;;;;1.77;0.98;;;;;;;11.20;75.14;95722.00;5011440;28;20050;-73
2021/05/15 07:06:48;;;;;;;2.03;0.90;;;;;;;11.19;75.29;95726.66;5012806;28;20049;-72
2021/05/15 07:09:14;;;;;;;2.83;1.02;;;;;;;11.26;76.10;95725.31;5012459;28;20046;-73
2021/05/15 07:11:40;;;;;;;2.15;0.90;;;;;;;11.34;76.77;95724.44;5012422;28;20566;-73
2021/05/15 07:14:06;;;;;;;2.60;1.20;;;;;;;11.43;76.82;95719.66;5011832;28;20049;-73
2021/05/15 07:16:32;;;;;;;3.28;1.02;;;;;;;11.52;75.19;95717.63;5012010;28;20045;-73
2021/05/15 07:18:58;;;;;;;2.08;1.00;;;;;;;11.55;74.56;95727.06;5012346;28;20435;-72
2021/05/15 07:21:24;;;;;;;2.40;1.10;;;;;;;11.54;73.47;95725.47;5011401;28;20108;-73
2021/05/15 07:23:50;;;;;;;1.92;1.17;;;;;;;11.58;74.46;95710.81;5012475;28;20583;-73
2021/05/15 07:26:16;;;;;;;1.75;1.13;;;;;;;11.59;72.90;95717.88;5011270;28;20046;-73
2021/05/15 07:28:42;;;;;;;2.17;1.08;;;;;;;11.59;73.13;95712.44;5012608;28;20065;-73
2021/05/15 07:31:08;;;;;;;2.85;1.05;;;;;;;11.63;73.08;95716.03;5011023;28;20053;-72
2021/05/15 07:33:35;;;;;;;3.30;1.20;;;;;;;11.77;73.17;95705.59;5012294;28;20050;-73
2021/05/15 07:36:01;;;;;;;2.58;1.17;;;;;;;11.88;70.58;95705.16;5010872;28;20401;-73
2021/05/15 07:38:28;;;;;;;3.22;1.30;;;;;;;12.09;71.51;95707.78;5012054;28;20045;-73
2021/05/15 07:40:55;;;;;;;2.70;0.90;;;;;;;12.25;69.82;95701.25;5011926;28;20045;-73
2021/05/15 07:43:23;;;;;;;3.33;0.90;;;;;;;12.43;69.29;95706.47;5011543;28;20053;-73
2021/05/15 07:45:49;;;;;;;1.05;0.85;;;;;;;12.59;68.96;95699.13;5012034;28;20052;-72
2021/05/15 07:48:15;;;;;;;1.63;0.90;;;;;;;12.74;68.49;95692.94;5010225;28;20069;-72
2021/05/15 07:50:41;;;;;;;1.65;1.00;;;;;;;13.01;69.09;95696.00;5011984;28;20049;-72
2021/05/15 07:53:10;;;;;;;1.48;0.90;;;;;;;13.29;67.45;95694.03;5010388;28;20501;-72
2021/05/15 07:55:37;;;;;;;1.55;0.70;;;;;;;13.51;65.87;95689.91;5012169;28;20049;-72
2021/05/15 07:58:03;;;;;;;1.45;0.80;;;;;;;13.90;63.19;95692.03;5010471;28;20493;-72
2021/05/15 08:00:29;;;;;;;1.27;0.95;;;;;;;14.09;60.83;95692.88;5011559;28;20073;-72
2021/05/15 08:02:55;;;;;;;1.60;0.80;;;;;;;14.56;58.72;95685.66;5011220;28;20046;-72
2021/05/15 08:05:21;;;;;;;1.70;0.93;;;;;;;14.94;60.39;95686.84;5010888;28;20057;-73
2021/05/15 08:07:47;;;;;;;1.45;0.70;;;;;;;15.10;56.64;95684.81;5009891;28;20037;-72
2021/05/15 08:10:13;;;;;;;1.42;0.77;;;;;;;15.17;57.24;95679.44;5010307;28;20096;-72
2021/05/15 08:12:40;;;;;;;2.60;1.00;;;;;;;15.39;53.15;95680.63;5011295;28;20037;-72
2021/05/15 08:15:07;;;;;;;0.88;0.63;;;;;;;16.14;53.73;95673.63;5010233;28;20054;-72
2021/05/15 08:17:34;;;;;;;1.42;0.70;;;;;;;16.88;52.81;95665.59;5011659;28;20046;-72
2021/05/15 08:20:01;;;;;;;1.77;0.60;;;;;;;16.70;51.36;95672.78;5010578;28;20048;-74
2021/05/15 08:22:27;;;;;;;1.30;0.70;;;;;;;16.53;53.18;95670.63;5011156;28;20088;-72
2021/05/15 08:24:53;;;;;;;2.67;0.70;;;;;;;16.79;50.77;95661.56;5010626;28;20050;-72
2021/05/15 08:27:19;;;;;;;3.55;0.95;;;;;;;17.50;54.06;95659.56;5010604;28;20576;-72
2021/05/15 08:29:46;;;;;;;1.98;0.82;;;;;;;17.86;49.81;95660.69;5010887;28;20157;-72
2021/05/15 08:32:12;;;;;;;1.95;0.73;;;;;;;17.30;47.59;95658.19;5010470;28;20053;-72
2021/05/15 08:34:38;;;;;;;1.30;0.68;;;;;;;17.63;51.04;95654.53;5011437;28;20045;-72
2021/05/15 08:37:04;;;;;;;1.17;0.75;;;;;;;18.55;44.53;95654.41;5010332;28;20393;-72
2021/05/15 08:39:30;;;;;;;1.80;1.00;;;;;;;18.60;44.75;95650.50;5011396;28;20046;-72
2021/05/15 08:41:56;;;;;;;2.47;0.80;;;;;;;18.86;43.47;95641.19;5010155;28;20038;-72
2021/05/15 08:44:24;;;;;;;1.85;0.80;;;;;;;18.41;46.48;95644.09;5010879;28;20108;-72
2021/05/15 08:46:52;;;;;;;1.27;0.73;;;;;;;18.62;49.94;95637.09;5009102;28;20447;-72
2021/05/15 08:49:21;;;;;;;3.05;1.52;;;;;;;18.32;46.81;95638.13;5010487;28;20049;-72
2021/05/15 08:51:49;;;;;;;3.03;0.98;;;;;;;17.92;46.90;95634.34;5010544;28;20436;-73
2021/05/15 08:54:16;;;;;;;6.13;1.42;;;;;;;17.82;45.44;95640.56;5010340;28;20057;-72
2021/05/15 08:56:42;;;;;;;3.85;1.40;;;;;;;17.90;44.24;95635.91;5010665;28;20045;-72
2021/05/15 08:59:08;;;;;;;0.80;0.73;;;;;;;18.02;44.59;95638.38;5009936;28;20042;-72
2021/05/15 09:01:35;;;;;;;2.20;0.68;;;;;;;17.59;45.48;95638.03;5010781;28;20117;-73
2021/05/15 09:04:01;;;;;;;1.50;0.60;;;;;;;16.98;45.04;95624.84;5010213;28;20050;-72
2021/05/15 09:06:27;;;;;;;1.83;0.63;;;;;;;16.70;46.66;95626.06;5011033;28;20042;-72
2021/05/15 09:08:53;;;;;;;2.28;0.85;;;;;;;16.32;48.76;95635.41;5009978;28;20136;-72
2021/05/15 09:11:19;;;;;;;1.27;0.70;;;;;;;16.52;49.25;95630.56;5010793;28;20128;-72
2021/05/15 09:13:53;;;;;;;2.67;1.08;;;;;;;17.26;48.90;95622.38;5010151;28;20066;-72
2021/05/15 09:16:19;;;;;;;1.73;0.55;;;;;;;17.95;47.91;95619.00;5010008;28;20437;-71
2021/05/15 09:18:45;;;;;;;1.45;0.77;;;;;;;17.62;45.44;95617.97;5010703;28;20053;-71
2021/05/15 09:21:15;;;;;;;2.15;0.73;;;;;;;16.89;46.89;95614.94;5013924;28;20050;-73
2021/05/15 09:23:45;;;;;;;2.45;0.82;;;;;;;16.53;47.97;95621.16;5014307;28;20310;-73
2021/05/15 09:26:13;;;;;;;1.15;0.73;;;;;;;16.37;49.44;95618.59;5013513;28;20054;-73
2021/05/15 09:28:43;;;;;;;1.42;0.70;;;;;;;16.25;52.87;95618.84;5014671;28;20042;-73
2021/05/15 09:31:15;;;;;;;1.25;0.75;;;;;;;16.18;53.38;95616.78;5013222;28;20046;-73
2021/05/15 09:33:43;;;;;;;2.42;1.10;;;;;;;16.08;49.96;95617.44;5013243;28;20042;-74
2021/05/15 09:36:15;;;;;;;0.93;0.63;;;;;;;15.98;49.87;95613.38;5013391;28;20101;-73
2021/05/15 09:38:42;;;;;;;1.65;0.90;;;;;;;15.82;49.04;95608.06;5014104;28;20064;-73
2021/05/15 09:41:08;;;;;;;2.15;0.57;;;;;;;15.73;45.69;95607.53;5013595;28;20420;-73
2021/05/15 09:43:35;;;;;;;0.52;0.50;;;;;;;15.84;48.47;95596.69;5013556;28;20519;-73
2021/05/15 09:46:01;;;;;;;0.57;0.45;;;;;;;16.00;48.44;95593.78;5013701;28;20472;-71
2021/05/15 09:48:36;;;;;;;2.50;0.93;;;;;;;15.96;45.82;95603.91;5013131;28;20041;-73
2021/05/15 09:51:13;;;;;;;3.17;0.68;;;;;;;15.76;47.01;95601.28;5013874;28;20053;-73
2021/05/15 09:53:40;;;;;;;1.65;0.70;;;;;;;15.45;48.07;95590.56;5013465;28;20053;-73
2021/05/15 09:56:06;;;;;;;3.28;1.00;;;;;;;15.18;48.13;95598.75;5013933;28;20115;-73
2021/05/15 09:58:32;;;;;;;2.95;0.60;;;;;;;14.94;47.53;95588.94;5013563;28;20044;-73
2021/05/15 10:00:58;;;;;;;1.60;0.77;;;;;;;14.67;47.14;95596.28;5013741;28;20100;-73
2021/05/15 10:03:26;;;;;;;0.98;0.60;;;;;;;14.41;49.59;95587.88;5012886;28;20386;-74
2021/05/15 10:06:01;;;;;;;2.15;0.70;;;;;;;14.23;50.96;95595.75;5013308;28;20466;-73
2021/05/15 10:08:29;;;;;;;1.90;0.68;;;;;;;14.17;52.42;95584.28;5013381;28;20092;-73
2021/05/15 10:10:55;;;;;;;1.20;0.77;;;;;;;14.08;54.51;95576.28;5012871;28;20038;-74
2021/05/15 10:13:22;;;;;;;3.70;0.80;;;;;;;14.14;57.13;95579.53;5013446;28;20065;-73
2021/05/15 10:15:50;;;;;;;1.23;0.77;;;;;;;14.15;58.04;95577.56;5012810;28;20070;-73
2021/05/15 10:18:17;;;;;;;0.50;0.50;;;;;;;14.03;55.85;95579.31;5013072;28;20551;-73
2021/05/15 10:20:44;;;;;;;2.65;0.68;;;;;;;13.95;56.89;95565.84;5013162;28;20407;-73
2021/05/15 10:23:21;;;;;;;1.13;0.80;;;;;;;13.89;56.33;95567.28;5013030;28;20041;-73
2021/05/15 10:25:50;;;;;;;1.98;0.70;;;;;;;13.93;58.01;95559.91;5013420;28;20038;-73
2021/05/15 10:28:31;;;;;;;2.17;0.98;;;;;;;14.04;56.56;95563.66;5012445;28;20076;-73
2021/05/15 10:31:09;;;;;;;2.15;0.98;;;;;;;14.22;57.15;95564.06;5013535;28;20049;-73
2021/05/15 10:33:36;;;;;;;1.17;0.70;;;;;;;14.54;54.68;95554.53;5012586;28;20046;-71
2021/05/15 10:36:04;;;;;;;2.60;0.90;;;;;;;15.13;59.39;95546.94;5012819;28;20512;-73
2021/05/15 10:38:36;;;;;;;3.47;1.10;;;;;;;15.79;54.30;95545.66;5012554;28;20038;-74
2021/05/15 10:41:12;;;;;;;6.07;2.08;;;;;;;16.31;51.46;95534.94;5011914;28;20053;-74
2021/05/15 10:43:39;;;;;;;1.88;0.85;;;;;;;16.74;53.42;95535.41;5012802;28;20046;-71
2021/05/15 10:46:24;;;;;;;2.75;1.00;;;;;;;17.06;51.88;95530.22;5011843;28;20066;-72
2021/05/15 10:48:59;;;;;;;2.72;0.85;;;;;;;17.23;50.19;95521.34;5012731;28;20049;-72
2021/05/15 10:51:33;;;;;;;2.75;0.90;;;;;;;17.06;47.16;95524.72;5011382;28;20042;-73
2021/05/15 10:53:59;;;;;;;3.05;0.73;;;;;;;16.86;48.97;95513.13;5012712;28;20076;-72
2021/05/15 10:56:29;;;;;;;2.47;1.10;;;;;;;16.57;48.72;95512.06;5011767;28;20046;-72
2021/05/15 10:59:02;;;;;;;2.33;1.10;;;;;;;16.35;50.23;95506.34;5012133;28;20042;-72
2021/05/15 11:01:42;;;;;;;2.25;0.93;;;;;;;16.22;50.63;95513.22;5012424;28;20048;-72
2021/05/15 11:04:16;;;;;;;1.25;0.88;;;;;;;15.90;48.56;95497.16;5011336;28;20137;-72
2021/05/15 11:06:43;;;;;;;1.33;0.85;;;;;;;15.57;49.82;95505.31;5012994;28;20404;-72
2021/05/15 11:09:11;;;;;;;2.60;0.85;;;;;;;15.43;49.86;95499.63;5011187;28;20046;-72
2021/05/15 11:11:39;;;;;;;2.67;0.80;;;;;;;15.25;53.55;95494.66;5012399;28;20045;-72
2021/05/15 11:14:24;;;;;;;3.38;0.90;;;;;;;15.23;55.17;95491.47;5011263;28;20072;-72
2021/05/15 11:17:23;;;;;;;2.55;0.90;;;;;;;15.26;55.35;95493.50;5011787;28;20042;-72
2021/05/15 11:19:55;;;;;;;3.08;0.82;;;;;;;15.29;53.08;95494.69;5008924;28;20128;-71
2021/05/15 11:22:33;;;;;;;1.48;0.80;;;;;;;15.35;50.67;95494.03;5011051;28;20045;-72
2021/05/15 11:25:00;;;;;;;5.72;0.98;;;;;;;15.47;52.07;95489.50;5012265;28;20177;-72
2021/05/15 11:27:31;;;;;;;2.08;0.80;;;;;;;15.62;50.26;95486.56;5011501;28;20042;-72
2021/05/15 11:30:09;;;;;;;1.63;0.80;;;;;;;15.86;48.42;95479.84;5011890;28;20049;-72
2021/05/15 11:32:35;;;;;;;4.35;0.70;;;;;;;15.90;47.52;95474.41;5011722;28;20072;-72
2021/05/15 11:35:07;;;;;;;1.33;0.73;;;;;;;15.81;46.41;95471.94;5010777;28;20053;-72
2021/05/15 11:37:33;;;;;;;2.00;0.60;;;;;;;15.83;47.75;95466.09;5012342;28;20049;-72